sensor_id;sensor_type;location;lat;lon;timestamp;pressure;altitude;pressure_sealevel;temperature
64600;BMP280;6553;48.412;9.514;2022-12-07T00:01:41;71486.00;;;18.22
64600;BMP280;6553;48.412;9.514;2022-12-07T00:04:12;71493.13;;;18.23
64600;BMP280;6553;48.412;9.514;2022-12-07T00:06:44;71492.59;;;18.23
64600;BMP280;6553;48.412;9.514;2022-12-07T00:09:13;71484.94;;;18.21
64600;BMP280;6553;48.412;9.514;2022-12-07T00:11:39;71490.47;;;18.21
64600;BMP280;6553;48.412;9.514;2022-12-07T00:14:10;71492.59;;;18.23
64600;BMP280;6553;48.412;9.514;2022-12-07T00:16:36;71491.53;;;18.22
64600;BMP280;6553;48.412;9.514;2022-12-07T00:19:03;71490.88;;;18.24
64600;BMP280;6553;48.412;9.514;2022-12-07T00:21:32;71490.88;;;18.24
64600;BMP280;6553;48.412;9.514;2022-12-07T00:24:00;71486.53;;;18.22
64600;BMP280;6553;48.412;9.514;2022-12-07T00:26:32;71487.59;;;18.23
64600;BMP280;6553;48.412;9.514;2022-12-07T00:29:11;71487.59;;;18.23
64600;BMP280;6553;48.412;9.514;2022-12-07T00:31:38;71489.31;;;18.22
64600;BMP280;6553;48.412;9.514;2022-12-07T00:34:06;71486.53;;;18.22
64600;BMP280;6553;48.412;9.514;2022-12-07T00:36:33;71491.00;;;18.21
64600;BMP280;6553;48.412;9.514;2022-12-07T00:39:00;71491.00;;;18.21
64600;BMP280;6553;48.412;9.514;2022-12-07T00:41:29;71489.31;;;18.22
64600;BMP280;6553;48.412;9.514;2022-12-07T00:43:56;71487.06;;;18.23
64600;BMP280;6553;48.412;9.514;2022-12-07T00:46:22;71486.53;;;18.22
64600;BMP280;6553;48.412;9.514;2022-12-07T00:48:49;71488.78;;;18.22
64600;BMP280;6553;48.412;9.514;2022-12-07T00:51:19;71487.28;;;18.18
64600;BMP280;6553;48.412;9.514;2022-12-07T00:53:45;71492.06;;;18.22
64600;BMP280;6553;48.412;9.514;2022-12-07T00:56:14;71488.22;;;18.21
64600;BMP280;6553;48.412;9.514;2022-12-07T00:58:40;71493.13;;;18.23
64600;BMP280;6553;48.412;9.514;2022-12-07T01:01:08;71493.13;;;18.23
64600;BMP280;6553;48.412;9.514;2022-12-07T01:03:34;71491.00;;;18.21
64600;BMP280;6553;48.412;9.514;2022-12-07T01:06:02;71491.00;;;18.21
64600;BMP280;6553;48.412;9.514;2022-12-07T01:08:30;71489.19;;;18.25
64600;BMP280;6553;48.412;9.514;2022-12-07T01:11:03;71495.88;;;18.23
64600;BMP280;6553;48.412;9.514;2022-12-07T01:13:30;71492.47;;;18.25
64600;BMP280;6553;48.412;9.514;2022-12-07T01:15:59;71489.31;;;18.22
64600;BMP280;6553;48.412;9.514;2022-12-07T01:18:28;71485.47;;;18.21
64600;BMP280;6553;48.412;9.514;2022-12-07T01:21:06;71476.03;;;18.23
64600;BMP280;6553;48.412;9.514;2022-12-07T01:23:34;71493.13;;;18.23
64600;BMP280;6553;48.412;9.514;2022-12-07T01:26:04;71488.09;;;18.24
64600;BMP280;6553;48.412;9.514;2022-12-07T01:28:30;71492.59;;;18.23
64600;BMP280;6553;48.412;9.514;2022-12-07T01:31:18;71488.66;;;18.24
64600;BMP280;6553;48.412;9.514;2022-12-07T01:33:48;71488.78;;;18.22
64600;BMP280;6553;48.412;9.514;2022-12-07T01:36:19;71487.06;;;18.23
64600;BMP280;6553;48.412;9.514;2022-12-07T01:38:47;71496.41;;;18.24
64600;BMP280;6553;48.412;9.514;2022-12-07T01:41:13;71495.78;;;18.26
64600;BMP280;6553;48.412;9.514;2022-12-07T01:46:37;71490.88;;;18.24
64600;BMP280;6553;48.412;9.514;2022-12-07T01:49:06;71490.88;;;18.24
64600;BMP280;6553;48.412;9.514;2022-12-07T01:51:34;71493.63;;;18.24
64600;BMP280;6553;48.412;9.514;2022-12-07T01:54:02;71491.00;;;18.21
64600;BMP280;6553;48.412;9.514;2022-12-07T01:56:29;71488.22;;;18.21
64600;BMP280;6553;48.412;9.514;2022-12-07T01:58:57;71489.31;;;18.22
64600;BMP280;6553;48.412;9.514;2022-12-07T02:01:24;71493.13;;;18.23
64600;BMP280;6553;48.412;9.514;2022-12-07T02:03:50;71493.13;;;18.23
64600;BMP280;6553;48.412;9.514;2022-12-07T02:06:22;71490.34;;;18.23
64600;BMP280;6553;48.412;9.514;2022-12-07T02:08:50;71490.34;;;18.23
64600;BMP280;6553;48.412;9.514;2022-12-07T02:11:16;71490.34;;;18.23
64600;BMP280;6553;48.412;9.514;2022-12-07T02:13:44;71490.34;;;18.23
64600;BMP280;6553;48.412;9.514;2022-12-07T02:19:35;71494.16;;;18.24
64600;BMP280;6553;48.412;9.514;2022-12-07T02:28:31;71489.72;;;18.25
64600;BMP280;6553;48.412;9.514;2022-12-07T02:31:11;71490.88;;;18.24
64600;BMP280;6553;48.412;9.514;2022-12-07T02:33:50;71486.53;;;18.22
64600;BMP280;6553;48.412;9.514;2022-12-07T02:36:42;71495.25;;;18.25
64600;BMP280;6553;48.412;9.514;2022-12-07T02:39:33;71495.78;;;18.26
64600;BMP280;6553;48.412;9.514;2022-12-07T02:42:19;71494.72;;;18.25
64600;BMP280;6553;48.412;9.514;2022-12-07T02:44:47;71496.84;;;18.27
64600;BMP280;6553;48.412;9.514;2022-12-07T02:47:17;71479.19;;;18.26
64600;BMP280;6553;48.412;9.514;2022-12-07T02:49:44;71490.78;;;18.26
64600;BMP280;6553;48.412;9.514;2022-12-07T02:52:10;71488.09;;;18.24
64600;BMP280;6553;48.412;9.514;2022-12-07T02:54:36;71495.78;;;18.26
64600;BMP280;6553;48.412;9.514;2022-12-07T03:00:11;71495.78;;;18.26
64600;BMP280;6553;48.412;9.514;2022-12-07T03:03:06;71497.78;;;18.30
64600;BMP280;6553;48.412;9.514;2022-12-07T03:06:07;71493.44;;;18.29
64600;BMP280;6553;48.412;9.514;2022-12-07T03:09:14;71491.84;;;18.27
64600;BMP280;6553;48.412;9.514;2022-12-07T03:11:51;71502.88;;;18.27
64600;BMP280;6553;48.412;9.514;2022-12-07T03:14:30;71500.13;;;18.27
64600;BMP280;6553;48.412;9.514;2022-12-07T03:17:20;71497.78;;;18.30
64600;BMP280;6553;48.412;9.514;2022-12-07T03:19:53;71499.50;;;18.29
64600;BMP280;6553;48.412;9.514;2022-12-07T03:22:23;71496.72;;;18.29
64600;BMP280;6553;48.412;9.514;2022-12-07T03:24:58;71492.88;;;18.28
64600;BMP280;6553;48.412;9.514;2022-12-07T03:27:42;71497.47;;;18.25
64600;BMP280;6553;48.412;9.514;2022-12-07T03:30:17;71487.59;;;18.23
64600;BMP280;6553;48.412;9.514;2022-12-07T03:32:51;71492.38;;;18.28
64600;BMP280;6553;48.412;9.514;2022-12-07T03:38:27;71497.38;;;18.27
64600;BMP280;6553;48.412;9.514;2022-12-07T03:41:14;71496.31;;;18.26
64600;BMP280;6553;48.412;9.514;2022-12-07T03:43:42;71488.66;;;18.24
64600;BMP280;6553;48.412;9.514;2022-12-07T03:49:16;71493.00;;;18.26
64600;BMP280;6553;48.412;9.514;2022-12-07T03:51:51;71493.56;;;18.26
64600;BMP280;6553;48.412;9.514;2022-12-07T03:54:47;71495.66;;;18.28
64600;BMP280;6553;48.412;9.514;2022-12-07T03:57:14;71482.38;;;18.29
64600;BMP280;6553;48.412;9.514;2022-12-07T03:59:41;71500.13;;;18.27
64600;BMP280;6553;48.412;9.514;2022-12-07T04:02:11;71498.41;;;18.28
64600;BMP280;6553;48.412;9.514;2022-12-07T04:04:38;71493.00;;;18.26
64600;BMP280;6553;48.412;9.514;2022-12-07T04:07:05;71493.56;;;18.26
64600;BMP280;6553;48.412;9.514;2022-12-07T04:09:30;71495.25;;;18.25
64600;BMP280;6553;48.412;9.514;2022-12-07T04:11:56;71495.25;;;18.25
64600;BMP280;6553;48.412;9.514;2022-12-07T04:14:22;71494.59;;;18.27
64600;BMP280;6553;48.412;9.514;2022-12-07T04:16:57;71496.84;;;18.27
64600;BMP280;6553;48.412;9.514;2022-12-07T04:19:30;71494.59;;;18.27
64600;BMP280;6553;48.412;9.514;2022-12-07T04:21:58;71495.25;;;18.25
64600;BMP280;6553;48.412;9.514;2022-12-07T04:24:24;71489.72;;;18.25
64600;BMP280;6553;48.412;9.514;2022-12-07T04:26:50;71489.72;;;18.25
64600;BMP280;6553;48.412;9.514;2022-12-07T04:29:17;71490.78;;;18.26
64600;BMP280;6553;48.412;9.514;2022-12-07T04:31:44;71489.19;;;18.25
64600;BMP280;6553;48.412;9.514;2022-12-07T04:34:11;71491.41;;;18.24
64600;BMP280;6553;48.412;9.514;2022-12-07T04:36:37;71491.94;;;18.25
64600;BMP280;6553;48.412;9.514;2022-12-07T04:39:04;71488.66;;;18.24
64600;BMP280;6553;48.412;9.514;2022-12-07T04:41:30;71490.88;;;18.24
64600;BMP280;6553;48.412;9.514;2022-12-07T04:44:03;71488.66;;;18.24
64600;BMP280;6553;48.412;9.514;2022-12-07T04:46:31;71493.63;;;18.24
64600;BMP280;6553;48.412;9.514;2022-12-07T04:48:57;71493.63;;;18.24
64600;BMP280;6553;48.412;9.514;2022-12-07T04:51:27;71494.28;;;18.22
64600;BMP280;6553;48.412;9.514;2022-12-07T04:53:55;71487.06;;;18.23
64600;BMP280;6553;48.412;9.514;2022-12-07T04:56:21;71493.13;;;18.23
64600;BMP280;6553;48.412;9.514;2022-12-07T04:58:48;71487.59;;;18.23
64600;BMP280;6553;48.412;9.514;2022-12-07T05:01:16;71489.31;;;18.22
64600;BMP280;6553;48.412;9.514;2022-12-07T05:03:43;71492.06;;;18.22
64600;BMP280;6553;48.412;9.514;2022-12-07T05:06:10;71493.75;;;18.21
64600;BMP280;6553;48.412;9.514;2022-12-07T05:08:36;71487.06;;;18.23
64600;BMP280;6553;48.412;9.514;2022-12-07T05:11:04;71476.03;;;18.23
64600;BMP280;6553;48.412;9.514;2022-12-07T05:13:31;71491.41;;;18.24
64600;BMP280;6553;48.412;9.514;2022-12-07T05:15:57;71492.59;;;18.23
64600;BMP280;6553;48.412;9.514;2022-12-07T05:18:24;71487.06;;;18.23
64600;BMP280;6553;48.412;9.514;2022-12-07T05:20:50;71490.34;;;18.23
64600;BMP280;6553;48.412;9.514;2022-12-07T05:23:17;71491.00;;;18.21
64600;BMP280;6553;48.412;9.514;2022-12-07T05:25:43;71487.69;;;18.21
64600;BMP280;6553;48.412;9.514;2022-12-07T05:28:10;71491.00;;;18.21
64600;BMP280;6553;48.412;9.514;2022-12-07T05:30:36;71493.75;;;18.21
64600;BMP280;6553;48.412;9.514;2022-12-07T05:33:03;71485.47;;;18.21
64600;BMP280;6553;48.412;9.514;2022-12-07T05:35:29;71484.94;;;18.21
64600;BMP280;6553;48.412;9.514;2022-12-07T05:37:55;71483.34;;;18.19
64600;BMP280;6553;48.412;9.514;2022-12-07T05:40:22;71489.94;;;18.20
64600;BMP280;6553;48.412;9.514;2022-12-07T05:42:48;71482.81;;;18.19
64600;BMP280;6553;48.412;9.514;2022-12-07T05:45:14;71483.34;;;18.19
64600;BMP280;6553;48.412;9.514;2022-12-07T05:47:39;71486.09;;;18.19
64600;BMP280;6553;48.412;9.514;2022-12-07T05:50:06;71491.09;;;18.19
64600;BMP280;6553;48.412;9.514;2022-12-07T05:52:32;71483.34;;;18.19
64600;BMP280;6553;48.412;9.514;2022-12-07T05:54:58;71489.41;;;18.20
64600;BMP280;6553;48.412;9.514;2022-12-07T05:57:24;71483.34;;;18.19
64600;BMP280;6553;48.412;9.514;2022-12-07T05:59:50;71486.09;;;18.19
64600;BMP280;6553;48.412;9.514;2022-12-07T06:02:16;71482.81;;;18.19
64600;BMP280;6553;48.412;9.514;2022-12-07T06:04:46;71484.41;;;18.20
64600;BMP280;6553;48.412;9.514;2022-12-07T06:07:15;71487.81;;;18.18
64600;BMP280;6553;48.412;9.514;2022-12-07T06:09:41;71487.16;;;18.20
64600;BMP280;6553;48.412;9.514;2022-12-07T06:12:11;71484.94;;;18.21
64600;BMP280;6553;48.412;9.514;2022-12-07T06:14:55;71488.88;;;18.19
64600;BMP280;6553;48.412;9.514;2022-12-07T06:17:21;71483.34;;;18.19
64600;BMP280;6553;48.412;9.514;2022-12-07T06:19:46;71486.66;;;18.20
64600;BMP280;6553;48.412;9.514;2022-12-07T06:22:12;71481.75;;;18.18
64600;BMP280;6553;48.412;9.514;2022-12-07T06:24:39;71487.28;;;18.18
64600;BMP280;6553;48.412;9.514;2022-12-07T06:27:06;71481.75;;;18.18
64600;BMP280;6553;48.412;9.514;2022-12-07T06:29:32;71485.56;;;18.19
64600;BMP280;6553;48.412;9.514;2022-12-07T06:31:57;71479.63;;;18.16
64600;BMP280;6553;48.412;9.514;2022-12-07T06:34:24;71486.75;;;18.17
64600;BMP280;6553;48.412;9.514;2022-12-07T06:36:51;71485.69;;;18.16
64600;BMP280;6553;48.412;9.514;2022-12-07T06:39:24;71480.69;;;18.17
64600;BMP280;6553;48.412;9.514;2022-12-07T06:41:51;71479.63;;;18.16
64600;BMP280;6553;48.412;9.514;2022-12-07T06:44:21;71483.44;;;18.17
64600;BMP280;6553;48.412;9.514;2022-12-07T06:46:48;71483.34;;;18.19
64600;BMP280;6553;48.412;9.514;2022-12-07T06:49:14;71481.22;;;18.17
64600;BMP280;6553;48.412;9.514;2022-12-07T06:51:40;71484.00;;;18.17
64600;BMP280;6553;48.412;9.514;2022-12-07T06:54:09;71486.75;;;18.17
64600;BMP280;6553;48.412;9.514;2022-12-07T06:56:35;71491.63;;;18.19
64600;BMP280;6553;48.412;9.514;2022-12-07T06:59:02;71485.06;;;18.18
64600;BMP280;6553;48.412;9.514;2022-12-07T07:01:28;71487.81;;;18.18
64600;BMP280;6553;48.412;9.514;2022-12-07T07:03:54;71481.22;;;18.17
64600;BMP280;6553;48.412;9.514;2022-12-07T07:06:19;71486.75;;;18.17
64600;BMP280;6553;48.412;9.514;2022-12-07T07:08:45;71480.69;;;18.17
64600;BMP280;6553;48.412;9.514;2022-12-07T07:11:11;71482.94;;;18.16
64600;BMP280;6553;48.412;9.514;2022-12-07T07:13:37;71482.41;;;18.16
64600;BMP280;6553;48.412;9.514;2022-12-07T07:16:03;71484.63;;;18.15
64600;BMP280;6553;48.412;9.514;2022-12-07T07:18:29;71487.38;;;18.15
64600;BMP280;6553;48.412;9.514;2022-12-07T07:20:55;71479.09;;;18.15
64600;BMP280;6553;48.412;9.514;2022-12-07T07:23:21;71480.28;;;18.14
64600;BMP280;6553;48.412;9.514;2022-12-07T07:25:47;71484.09;;;18.15
64600;BMP280;6553;48.412;9.514;2022-12-07T07:28:14;71480.78;;;18.14
64600;BMP280;6553;48.412;9.514;2022-12-07T07:30:40;71486.31;;;18.14
64600;BMP280;6553;48.412;9.514;2022-12-07T07:33:06;71484.63;;;18.15
64600;BMP280;6553;48.412;9.514;2022-12-07T07:35:34;71488.47;;;18.16
64600;BMP280;6553;48.412;9.514;2022-12-07T07:38:00;71486.75;;;18.17
64600;BMP280;6553;48.412;9.514;2022-12-07T07:40:27;71486.22;;;18.17
64600;BMP280;6553;48.412;9.514;2022-12-07T07:42:57;71482.81;;;18.19
64600;BMP280;6553;48.412;9.514;2022-12-07T07:45:24;71482.81;;;18.19
64600;BMP280;6553;48.412;9.514;2022-12-07T07:47:51;71489.50;;;18.17
64600;BMP280;6553;48.412;9.514;2022-12-07T07:50:18;71485.06;;;18.18
64600;BMP280;6553;48.412;9.514;2022-12-07T07:52:45;71486.75;;;18.17
64600;BMP280;6553;48.412;9.514;2022-12-07T07:55:11;71482.28;;;18.18
64600;BMP280;6553;48.412;9.514;2022-12-07T07:57:38;71481.75;;;18.18
64600;BMP280;6553;48.412;9.514;2022-12-07T08:00:12;71490.59;;;18.18
64600;BMP280;6553;48.412;9.514;2022-12-07T08:02:38;71486.75;;;18.17
64600;BMP280;6553;48.412;9.514;2022-12-07T08:05:05;71480.16;;;18.16
64600;BMP280;6553;48.412;9.514;2022-12-07T08:07:31;71480.16;;;18.16
64600;BMP280;6553;48.412;9.514;2022-12-07T08:09:57;71479.09;;;18.15
64600;BMP280;6553;48.412;9.514;2022-12-07T08:12:22;71479.63;;;18.16
64600;BMP280;6553;48.412;9.514;2022-12-07T08:14:48;71484.53;;;18.18
64600;BMP280;6553;48.412;9.514;2022-12-07T08:17:14;71480.16;;;18.16
64600;BMP280;6553;48.412;9.514;2022-12-07T08:19:40;71484.00;;;18.17
64600;BMP280;6553;48.412;9.514;2022-12-07T08:22:05;71486.84;;;18.15
64600;BMP280;6553;48.412;9.514;2022-12-07T08:24:34;71480.16;;;18.16
64600;BMP280;6553;48.412;9.514;2022-12-07T08:27:01;71481.75;;;18.18
64600;BMP280;6553;48.412;9.514;2022-12-07T08:29:27;71489.94;;;18.20
64600;BMP280;6553;48.412;9.514;2022-12-07T08:31:53;71482.81;;;18.19
64600;BMP280;6553;48.412;9.514;2022-12-07T08:34:18;71489.94;;;18.20
64600;BMP280;6553;48.412;9.514;2022-12-07T08:36:44;71488.88;;;18.19
64600;BMP280;6553;48.412;9.514;2022-12-07T08:39:10;71486.66;;;18.20
64600;BMP280;6553;48.412;9.514;2022-12-07T08:41:36;71487.16;;;18.20
64600;BMP280;6553;48.412;9.514;2022-12-07T08:44:02;71489.94;;;18.20
64600;BMP280;6553;48.412;9.514;2022-12-07T08:46:37;71486.53;;;18.22
64600;BMP280;6553;48.412;9.514;2022-12-07T08:49:16;71491.00;;;18.21
64600;BMP280;6553;48.412;9.514;2022-12-07T08:51:44;71491.00;;;18.21
64600;BMP280;6553;48.412;9.514;2022-12-07T08:54:15;71488.22;;;18.21
64600;BMP280;6553;48.412;9.514;2022-12-07T08:56:43;71491.00;;;18.21
64600;BMP280;6553;48.412;9.514;2022-12-07T08:59:09;71482.28;;;18.18
64600;BMP280;6553;48.412;9.514;2022-12-07T09:01:35;71486.00;;;18.22
64600;BMP280;6553;48.412;9.514;2022-12-07T09:04:01;71485.47;;;18.21
64600;BMP280;6553;48.412;9.514;2022-12-07T09:06:27;71483.34;;;18.19
64600;BMP280;6553;48.412;9.514;2022-12-07T09:08:59;71484.94;;;18.21
64600;BMP280;6553;48.412;9.514;2022-12-07T09:11:27;71486.00;;;18.22
64600;BMP280;6553;48.412;9.514;2022-12-07T09:13:53;71486.00;;;18.22
64600;BMP280;6553;48.412;9.514;2022-12-07T09:16:18;71490.34;;;18.23
64600;BMP280;6553;48.412;9.514;2022-12-07T09:18:44;71490.34;;;18.23
64600;BMP280;6553;48.412;9.514;2022-12-07T09:21:10;71491.41;;;18.24
64600;BMP280;6553;48.412;9.514;2022-12-07T09:23:36;71490.25;;;18.26
64600;BMP280;6553;48.412;9.514;2022-12-07T09:26:04;71495.66;;;18.28
64600;BMP280;6553;48.412;9.514;2022-12-07T09:28:33;71493.44;;;18.29
64600;BMP280;6553;48.412;9.514;2022-12-07T09:31:00;71492.88;;;18.28
64600;BMP280;6553;48.412;9.514;2022-12-07T09:33:27;71500.13;;;18.27
64600;BMP280;6553;48.412;9.514;2022-12-07T09:35:53;71498.94;;;18.29
64600;BMP280;6553;48.412;9.514;2022-12-07T09:38:20;71498.94;;;18.29
64600;BMP280;6553;48.412;9.514;2022-12-07T09:40:47;71491.31;;;18.27
64600;BMP280;6553;48.412;9.514;2022-12-07T09:43:23;71494.50;;;18.30
64600;BMP280;6553;48.412;9.514;2022-12-07T09:45:53;71495.56;;;18.31
64600;BMP280;6553;48.412;9.514;2022-12-07T09:48:30;71493.44;;;18.29
64600;BMP280;6553;48.412;9.514;2022-12-07T09:50:59;71497.16;;;18.32
64600;BMP280;6553;48.412;9.514;2022-12-07T09:53:33;71500.03;;;18.30
64600;BMP280;6553;48.412;9.514;2022-12-07T09:56:00;71500.56;;;18.30
64600;BMP280;6553;48.412;9.514;2022-12-07T09:58:28;71503.19;;;18.33
64600;BMP280;6553;48.412;9.514;2022-12-07T10:01:18;71499.25;;;18.34
64600;BMP280;6553;48.412;9.514;2022-12-07T10:04:09;71504.28;;;18.34
64600;BMP280;6553;48.412;9.514;2022-12-07T10:06:35;71500.44;;;18.33
64600;BMP280;6553;48.412;9.514;2022-12-07T10:09:01;71498.22;;;18.33
64600;BMP280;6553;48.412;9.514;2022-12-07T10:11:28;71498.75;;;18.34
64600;BMP280;6553;48.412;9.514;2022-12-07T10:13:53;71497.16;;;18.32
64600;BMP280;6553;48.412;9.514;2022-12-07T10:16:37;71501.50;;;18.34
64600;BMP280;6553;48.412;9.514;2022-12-07T10:19:30;71504.28;;;18.34
64600;BMP280;6553;48.412;9.514;2022-12-07T10:24:29;71498.75;;;18.34
64600;BMP280;6553;48.412;9.514;2022-12-07T10:26:56;71503.63;;;18.36
64600;BMP280;6553;48.412;9.514;2022-12-07T10:31:58;71499.25;;;18.34
64600;BMP280;6553;48.412;9.514;2022-12-07T10:34:28;71500.97;;;18.33
64600;BMP280;6553;48.412;9.514;2022-12-07T10:39:51;71497.16;;;18.32
64600;BMP280;6553;48.412;9.514;2022-12-07T10:42:24;71506.50;;;18.33
64600;BMP280;6553;48.412;9.514;2022-12-07T10:45:15;71503.09;;;18.35
64600;BMP280;6553;48.412;9.514;2022-12-07T10:48:00;71506.94;;;18.36
64600;BMP280;6553;48.412;9.514;2022-12-07T10:54:08;71500.34;;;18.35
64600;BMP280;6553;48.412;9.514;2022-12-07T11:00:08;71506.41;;;18.36
64600;BMP280;6553;48.412;9.514;2022-12-07T11:03:46;71505.84;;;18.35
64600;BMP280;6553;48.412;9.514;2022-12-07T11:12:11;71505.13;;;18.40
64600;BMP280;6553;48.412;9.514;2022-12-07T11:15:21;71510.09;;;18.39
64600;BMP280;6553;48.412;9.514;2022-12-07T11:18:22;71507.22;;;18.42
64600;BMP280;6553;48.412;9.514;2022-12-07T11:23:49;71509.47;;;18.41
64600;BMP280;6553;48.412;9.514;2022-12-07T11:32:22;71505.13;;;18.40
64600;BMP280;6553;48.412;9.514;2022-12-07T11:37:32;71505.22;;;18.37
64600;BMP280;6553;48.412;9.514;2022-12-07T11:40:25;71504.16;;;18.36
64600;BMP280;6553;48.412;9.514;2022-12-07T11:42:58;71498.75;;;18.34
64600;BMP280;6553;48.412;9.514;2022-12-07T11:45:33;71506.94;;;18.36
64600;BMP280;6553;48.412;9.514;2022-12-07T11:48:29;71504.03;;;18.39
64600;BMP280;6553;48.412;9.514;2022-12-07T11:50:59;71507.97;;;18.37
64600;BMP280;6553;48.412;9.514;2022-12-07T11:53:36;71510.09;;;18.39
64600;BMP280;6553;48.412;9.514;2022-12-07T11:56:14;71512.88;;;18.39
64600;BMP280;6553;48.412;9.514;2022-12-07T11:59:10;71510.63;;;18.40
64600;BMP280;6553;48.412;9.514;2022-12-07T12:06:40;71510.09;;;18.39
64600;BMP280;6553;48.412;9.514;2022-12-07T12:12:16;71504.56;;;18.39
64600;BMP280;6553;48.412;9.514;2022-12-07T12:18:03;71515.41;;;18.44
64600;BMP280;6553;48.412;9.514;2022-12-07T12:23:20;71510.63;;;18.40
64600;BMP280;6553;48.412;9.514;2022-12-07T12:26:21;71508.50;;;18.38
64600;BMP280;6553;48.412;9.514;2022-12-07T12:29:21;71506.94;;;18.36
64600;BMP280;6553;48.412;9.514;2022-12-07T12:32:10;71502.47;;;18.37
64600;BMP280;6553;48.412;9.514;2022-12-07T12:42:55;71507.22;;;18.42
64600;BMP280;6553;48.412;9.514;2022-12-07T12:45:29;71511.72;;;18.41
64600;BMP280;6553;48.412;9.514;2022-12-07T12:48:03;71504.56;;;18.39
64600;BMP280;6553;48.412;9.514;2022-12-07T12:50:36;71507.22;;;18.42
64600;BMP280;6553;48.412;9.514;2022-12-07T12:53:24;71508.41;;;18.40
64600;BMP280;6553;48.412;9.514;2022-12-07T12:56:28;71513.94;;;18.40
64600;BMP280;6553;48.412;9.514;2022-12-07T13:01:49;71507.34;;;18.39
64600;BMP280;6553;48.412;9.514;2022-12-07T13:04:28;71508.41;;;18.40
64600;BMP280;6553;48.412;9.514;2022-12-07T13:06:55;71507.88;;;18.40
64600;BMP280;6553;48.412;9.514;2022-12-07T13:09:26;71511.72;;;18.41
64600;BMP280;6553;48.412;9.514;2022-12-07T13:12:01;71506.69;;;18.41
64600;BMP280;6553;48.412;9.514;2022-12-07T13:19:57;71512.75;;;18.42
64600;BMP280;6553;48.412;9.514;2022-12-07T13:25:30;71498.41;;;18.41
64600;BMP280;6553;48.412;9.514;2022-12-07T13:28:18;71507.34;;;18.39
64600;BMP280;6553;48.412;9.514;2022-12-07T13:31:00;71509.47;;;18.41
64600;BMP280;6553;48.412;9.514;2022-12-07T13:33:29;71515.00;;;18.41
64600;BMP280;6553;48.412;9.514;2022-12-07T13:35:56;71512.66;;;18.44
64600;BMP280;6553;48.412;9.514;2022-12-07T13:38:30;71506.69;;;18.41
64600;BMP280;6553;48.412;9.514;2022-12-07T13:41:19;71509.56;;;18.39
64600;BMP280;6553;48.412;9.514;2022-12-07T13:43:49;71510.63;;;18.40
64600;BMP280;6553;48.412;9.514;2022-12-07T13:46:15;71508.50;;;18.38
64600;BMP280;6553;48.412;9.514;2022-12-07T13:48:50;71506.81;;;18.39
64600;BMP280;6553;48.412;9.514;2022-12-07T13:51:25;71504.56;;;18.39
64600;BMP280;6553;48.412;9.514;2022-12-07T13:54:01;71512.44;;;18.36
64600;BMP280;6553;48.412;9.514;2022-12-07T13:56:35;71502.56;;;18.35
64600;BMP280;6553;48.412;9.514;2022-12-07T13:59:01;71517.44;;;18.36
64600;BMP280;6553;48.412;9.514;2022-12-07T14:01:30;71511.25;;;18.38
64600;BMP280;6553;48.412;9.514;2022-12-07T14:06:55;71509.47;;;18.41
64600;BMP280;6553;48.412;9.514;2022-12-07T14:09:25;71508.94;;;18.41
64600;BMP280;6553;48.412;9.514;2022-12-07T14:11:55;71504.16;;;18.36
64600;BMP280;6553;48.412;9.514;2022-12-07T14:14:30;71509.56;;;18.39
64600;BMP280;6553;48.412;9.514;2022-12-07T14:17:12;71508.50;;;18.38
64600;BMP280;6553;48.412;9.514;2022-12-07T14:19:52;71510.09;;;18.39
64600;BMP280;6553;48.412;9.514;2022-12-07T14:22:27;71510.63;;;18.40
64600;BMP280;6553;48.412;9.514;2022-12-07T14:25:24;71508.94;;;18.41
64600;BMP280;6553;48.412;9.514;2022-12-07T14:28:00;71515.00;;;18.41
64600;BMP280;6553;48.412;9.514;2022-12-07T14:30:32;71510.63;;;18.40
64600;BMP280;6553;48.412;9.514;2022-12-07T14:33:02;71505.66;;;18.40
64600;BMP280;6553;48.412;9.514;2022-12-07T14:35:29;71504.56;;;18.39
64600;BMP280;6553;48.412;9.514;2022-12-07T14:37:56;71502.97;;;18.38
64600;BMP280;6553;48.412;9.514;2022-12-07T14:40:25;71501.94;;;18.37
64600;BMP280;6553;48.412;9.514;2022-12-07T14:43:14;71505.72;;;18.38
64600;BMP280;6553;48.412;9.514;2022-12-07T14:45:41;71505.72;;;18.38
64600;BMP280;6553;48.412;9.514;2022-12-07T14:48:15;71506.41;;;18.36
64600;BMP280;6553;48.412;9.514;2022-12-07T14:50:49;71499.78;;;18.35
64600;BMP280;6553;48.412;9.514;2022-12-07T14:53:21;71503.09;;;18.35
64600;BMP280;6553;48.412;9.514;2022-12-07T14:55:50;71498.22;;;18.33
64600;BMP280;6553;48.412;9.514;2022-12-07T14:58:17;71496.63;;;18.32
64600;BMP280;6553;48.412;9.514;2022-12-07T15:00:44;71506.50;;;18.33
64600;BMP280;6553;48.412;9.514;2022-12-07T15:03:10;71498.22;;;18.33
64600;BMP280;6553;48.412;9.514;2022-12-07T15:05:37;71502.69;;;18.32
64600;BMP280;6553;48.412;9.514;2022-12-07T15:08:03;71498.31;;;18.31
64600;BMP280;6553;48.412;9.514;2022-12-07T15:10:33;71489.72;;;18.25
64600;BMP280;6553;48.412;9.514;2022-12-07T15:13:01;71502.16;;;18.32
64600;BMP280;6553;48.412;9.514;2022-12-07T15:15:47;71498.84;;;18.31
64600;BMP280;6553;48.412;9.514;2022-12-07T15:18:14;71498.84;;;18.31
64600;BMP280;6553;48.412;9.514;2022-12-07T15:20:40;71495.03;;;18.30
64600;BMP280;6553;48.412;9.514;2022-12-07T15:23:07;71496.09;;;18.31
64600;BMP280;6553;48.412;9.514;2022-12-07T15:25:33;71496.72;;;18.29
64600;BMP280;6553;48.412;9.514;2022-12-07T15:27:59;71495.56;;;18.31
64600;BMP280;6553;48.412;9.514;2022-12-07T15:30:25;71501.59;;;18.31
64600;BMP280;6553;48.412;9.514;2022-12-07T15:32:52;71498.22;;;18.33
64600;BMP280;6553;48.412;9.514;2022-12-07T15:35:19;71500.56;;;18.30
64600;BMP280;6553;48.412;9.514;2022-12-07T15:37:46;71495.03;;;18.30
64600;BMP280;6553;48.412;9.514;2022-12-07T15:40:13;71500.56;;;18.30
64600;BMP280;6553;48.412;9.514;2022-12-07T15:42:40;71495.03;;;18.30
64600;BMP280;6553;48.412;9.514;2022-12-07T15:45:08;71496.72;;;18.29
64600;BMP280;6553;48.412;9.514;2022-12-07T15:47:43;71494.50;;;18.30
64600;BMP280;6553;48.412;9.514;2022-12-07T15:50:15;71498.94;;;18.29
64600;BMP280;6553;48.412;9.514;2022-12-07T15:52:41;71496.19;;;18.29
64600;BMP280;6553;48.412;9.514;2022-12-07T15:55:09;71492.38;;;18.28
64600;BMP280;6553;48.412;9.514;2022-12-07T15:57:37;71491.31;;;18.27
64600;BMP280;6553;48.412;9.514;2022-12-07T16:00:08;71495.66;;;18.28
64600;BMP280;6553;48.412;9.514;2022-12-07T16:02:36;71492.88;;;18.28
64600;BMP280;6553;48.412;9.514;2022-12-07T16:05:02;71498.41;;;18.28
64600;BMP280;6553;48.412;9.514;2022-12-07T16:07:28;71497.38;;;18.27
64600;BMP280;6553;48.412;9.514;2022-12-07T16:09:54;71493.97;;;18.29
64600;BMP280;6553;48.412;9.514;2022-12-07T16:12:19;71495.03;;;18.30
64600;BMP280;6553;48.412;9.514;2022-12-07T16:14:45;71495.03;;;18.30